createdAt,value
2022-09-23T00:01:11.143Z,11.57
2022-09-23T00:03:42.043Z,11.23
2022-09-23T00:06:18.899Z,14.10
2022-09-23T00:08:46.520Z,10.73
2022-09-23T00:11:16.586Z,11.23
2022-09-23T00:16:15.584Z,11.15
2022-09-23T00:18:43.737Z,10.13
2022-09-23T00:21:13.301Z,11.48
2022-09-23T00:23:43.060Z,11.15
2022-09-23T00:26:13.409Z,11.63
2022-09-23T00:28:42.197Z,12.02
2022-09-23T00:31:12.629Z,10.90
2022-09-23T00:33:40.876Z,10.73
2022-09-23T00:36:15.810Z,11.02
2022-09-23T00:38:45.294Z,12.75
2022-09-23T00:41:17.813Z,10.63
2022-09-23T00:43:46.581Z,11.20
2022-09-23T00:46:22.596Z,11.93
2022-09-23T00:48:56.284Z,10.80
2022-09-23T00:51:27.597Z,11.75
2022-09-23T00:53:54.648Z,10.70
2022-09-23T00:56:24.359Z,9.95
2022-09-23T00:58:52.250Z,10.93
2022-09-23T01:01:19.817Z,10.90
2022-09-23T01:03:47.956Z,10.82
2022-09-23T01:06:15.087Z,11.23
2022-09-23T01:08:45.696Z,10.98
2022-09-23T01:11:34.335Z,9.73
2022-09-23T01:14:19.987Z,11.05
2022-09-23T01:16:50.954Z,11.00
2022-09-23T01:19:45.710Z,10.52
2022-09-23T01:22:28.407Z,10.68
2022-09-23T01:25:32.074Z,11.02
2022-09-23T01:28:01.690Z,11.25
2022-09-23T01:30:44.500Z,10.52
2022-09-23T01:33:43.921Z,11.35
2022-09-23T01:36:27.628Z,10.77
2022-09-23T01:39:03.939Z,11.38
2022-09-23T01:41:55.497Z,9.98
2022-09-23T01:44:33.480Z,11.23
2022-09-23T01:47:11.508Z,10.18
2022-09-23T01:50:01.733Z,10.15
2022-09-23T01:55:08.839Z,10.57
2022-09-23T01:57:43.072Z,10.20
2022-09-23T02:00:18.641Z,9.57
2022-09-23T02:03:05.092Z,9.57
2022-09-23T02:05:39.742Z,9.57
2022-09-23T02:08:14.800Z,9.90
2022-09-23T02:10:47.298Z,10.15
2022-09-23T02:13:28.450Z,10.23
2022-09-23T02:16:01.272Z,9.57
2022-09-23T02:18:42.271Z,10.20
2022-09-23T02:21:09.942Z,9.25
2022-09-23T02:23:43.591Z,9.10
2022-09-23T02:26:25.711Z,9.07
2022-09-23T02:28:59.674Z,11.00
2022-09-23T02:32:17.954Z,8.45
2022-09-23T02:35:21.000Z,8.77
2022-09-23T02:38:14.015Z,8.82
2022-09-23T02:41:00.182Z,7.00
2022-09-23T02:43:36.474Z,6.70
2022-09-23T02:46:05.017Z,7.65
2022-09-23T02:48:43.622Z,7.25
2022-09-23T02:51:11.119Z,6.97
2022-09-23T02:53:38.430Z,7.03
2022-09-23T02:56:22.515Z,7.13
2022-09-23T02:58:51.981Z,6.38
2022-09-23T03:01:48.146Z,6.75
2022-09-23T03:04:50.295Z,6.00
2022-09-23T03:07:33.193Z,6.25
2022-09-23T03:10:11.983Z,6.57
2022-09-23T03:12:38.934Z,6.55
2022-09-23T03:15:35.648Z,5.90
2022-09-23T03:18:18.239Z,7.40
2022-09-23T03:21:15.163Z,5.60
2022-09-23T03:23:50.847Z,5.90
2022-09-23T03:26:23.468Z,5.07
2022-09-23T03:28:51.771Z,5.40
2022-09-23T03:31:18.995Z,4.75
2022-09-23T03:33:54.784Z,5.18
2022-09-23T03:36:47.848Z,5.43
2022-09-23T03:39:33.889Z,5.28
2022-09-23T03:42:06.857Z,5.22
2022-09-23T03:44:39.539Z,5.25
2022-09-23T03:47:06.589Z,5.40
2022-09-23T03:49:37.342Z,5.25
2022-09-23T03:52:04.404Z,5.32
2022-09-23T03:54:32.394Z,6.28
2022-09-23T03:56:59.975Z,6.72
2022-09-23T03:59:28.109Z,5.72
2022-09-23T04:01:55.718Z,6.43
2022-09-23T04:04:22.780Z,6.70
2022-09-23T04:06:49.744Z,6.22
2022-09-23T04:09:17.072Z,6.72
2022-09-23T04:11:43.992Z,6.80
2022-09-23T04:14:12.300Z,7.38
2022-09-23T04:16:39.525Z,8.43
2022-09-23T04:19:11.317Z,8.02
2022-09-23T04:21:42.518Z,8.23
2022-09-23T04:24:10.783Z,9.35
2022-09-23T04:26:38.897Z,9.57
2022-09-23T04:29:06.881Z,9.10
2022-09-23T04:31:34.587Z,9.15
2022-09-23T04:34:01.819Z,9.82
2022-09-23T04:36:30.461Z,9.32
2022-09-23T04:38:57.919Z,9.55
2022-09-23T04:41:27.288Z,9.32
2022-09-23T04:43:54.605Z,9.55
2022-09-23T04:46:21.628Z,9.32
2022-09-23T04:48:48.659Z,9.88
2022-09-23T04:51:18.461Z,13.07
2022-09-23T04:53:48.857Z,9.82
2022-09-23T04:56:18.881Z,10.57
2022-09-23T04:58:46.442Z,9.93
2022-09-23T05:01:25.411Z,10.40
2022-09-23T05:04:17.094Z,10.80
2022-09-23T05:07:08.134Z,9.95
2022-09-23T05:09:35.076Z,9.57
2022-09-23T05:12:02.302Z,9.45
2022-09-23T05:14:29.414Z,8.98
2022-09-23T05:16:56.550Z,9.68
2022-09-23T05:19:23.541Z,10.50
2022-09-23T05:21:50.678Z,8.90
2022-09-23T05:24:17.939Z,10.05
2022-09-23T05:26:44.874Z,9.27
2022-09-23T05:29:12.043Z,10.23
2022-09-23T05:31:39.045Z,8.88
2022-09-23T05:34:06.952Z,9.18
2022-09-23T05:36:38.628Z,9.23
2022-09-23T05:39:08.459Z,9.10
2022-09-23T05:41:36.823Z,10.48
2022-09-23T05:44:04.339Z,13.90
2022-09-23T05:46:32.330Z,11.93
2022-09-23T05:49:02.990Z,13.05
2022-09-23T05:51:31.820Z,14.13
2022-09-23T05:54:00.031Z,14.10
2022-09-23T05:56:28.927Z,13.02
2022-09-23T05:58:58.047Z,11.18
2022-09-23T06:01:28.465Z,11.73
2022-09-23T06:03:57.472Z,10.77
2022-09-23T06:06:31.793Z,10.18
2022-09-23T06:08:59.682Z,10.30
2022-09-23T06:11:29.978Z,12.13
2022-09-23T06:14:04.287Z,10.18
2022-09-23T06:16:34.868Z,8.95
2022-09-23T06:19:06.481Z,8.95
2022-09-23T06:21:39.548Z,9.20
2022-09-23T06:24:07.734Z,9.88
2022-09-23T06:26:37.947Z,8.82
2022-09-23T06:31:36.112Z,9.13
2022-09-23T06:34:10.755Z,8.85
2022-09-23T06:36:44.004Z,8.40
2022-09-23T06:39:12.119Z,9.52
2022-09-23T06:41:39.484Z,8.35
2022-09-23T06:44:12.343Z,8.80
2022-09-23T06:46:39.432Z,8.40
2022-09-23T06:49:06.518Z,7.88
2022-09-23T06:51:33.965Z,8.80
2022-09-23T06:54:02.328Z,8.82
2022-09-23T06:56:32.414Z,8.07
2022-09-23T06:59:01.969Z,7.78
2022-09-23T07:01:29.013Z,7.10
2022-09-23T07:03:56.103Z,7.38
2022-09-23T07:06:23.146Z,6.93
2022-09-23T07:08:51.464Z,6.60
2022-09-23T07:11:22.660Z,7.15
2022-09-23T07:13:49.938Z,7.45
2022-09-23T07:16:16.965Z,6.70
2022-09-23T07:18:45.865Z,7.40
2022-09-23T07:21:18.557Z,6.82
2022-09-23T07:23:47.465Z,6.32
2022-09-23T07:26:15.871Z,7.10
2022-09-23T07:28:43.594Z,6.03
2022-09-23T07:31:13.739Z,7.13
2022-09-23T07:33:44.346Z,6.32
2022-09-23T07:36:15.184Z,6.43
2022-09-23T07:38:45.488Z,6.85
2022-09-23T07:41:16.183Z,6.30
2022-09-23T07:43:44.282Z,7.38
2022-09-23T07:46:16.634Z,6.13
2022-09-23T07:48:44.569Z,6.85
2022-09-23T07:51:17.261Z,6.70
2022-09-23T07:53:47.457Z,5.57
2022-09-23T07:56:14.559Z,6.05
2022-09-23T07:58:41.579Z,6.15
2022-09-23T08:01:10.464Z,5.38
2022-09-23T08:03:37.585Z,5.53
2022-09-23T08:06:07.388Z,5.97
2022-09-23T08:08:34.573Z,6.25
2022-09-23T08:11:06.198Z,5.70
2022-09-23T08:13:34.316Z,5.82
2022-09-23T08:16:01.574Z,5.57
2022-09-23T08:18:28.975Z,6.10
2022-09-23T08:20:55.972Z,5.43
2022-09-23T08:23:23.292Z,8.65
2022-09-23T08:25:59.712Z,5.07
2022-09-23T08:28:27.693Z,5.25
2022-09-23T08:30:55.415Z,5.80
2022-09-23T08:33:23.746Z,7.53
2022-09-23T08:35:52.356Z,6.43
2022-09-23T08:38:20.221Z,5.85
2022-09-23T08:40:50.749Z,5.80
2022-09-23T08:43:32.955Z,5.18
2022-09-23T08:46:06.746Z,5.97
2022-09-23T08:48:38.646Z,5.35
2022-09-23T08:51:11.554Z,7.88
2022-09-23T08:53:39.381Z,6.25
2022-09-23T08:56:22.879Z,8.45
2022-09-23T08:59:07.675Z,5.82
2022-09-23T09:01:50.229Z,6.38
2022-09-23T09:04:47.989Z,9.70
2022-09-23T09:07:37.819Z,6.38
2022-09-23T09:10:19.559Z,6.30
2022-09-23T09:13:09.155Z,8.70
2022-09-23T09:15:47.184Z,6.28
2022-09-23T09:18:20.066Z,6.15
2022-09-23T09:21:10.222Z,5.45
2022-09-23T09:23:52.854Z,9.25
2022-09-23T09:26:26.519Z,5.57
2022-09-23T09:29:34.232Z,4.95
2022-09-23T09:32:16.921Z,5.82
2022-09-23T09:34:54.841Z,5.15
2022-09-23T09:37:33.101Z,7.57
2022-09-23T09:40:00.533Z,6.45
2022-09-23T09:42:37.300Z,5.35
2022-09-23T09:45:07.545Z,5.60
2022-09-23T09:47:59.539Z,6.00
2022-09-23T09:50:49.579Z,6.75
2022-09-23T09:53:19.378Z,5.57
2022-09-23T09:58:17.124Z,5.83
2022-09-23T10:00:46.113Z,5.80
2022-09-23T10:03:13.442Z,6.47
2022-09-23T10:05:45.975Z,6.03
2022-09-23T10:08:19.494Z,5.32
2022-09-23T10:10:55.065Z,5.70
2022-09-23T10:13:27.368Z,5.40
2022-09-23T10:15:55.202Z,5.72
2022-09-23T10:18:37.499Z,5.60
2022-09-23T10:21:07.960Z,6.00
2022-09-23T10:23:40.034Z,7.30
2022-09-23T10:26:12.277Z,5.45
2022-09-23T10:28:55.662Z,6.03
2022-09-23T10:31:26.201Z,5.35
2022-09-23T10:34:01.970Z,4.70
2022-09-23T10:36:33.654Z,4.70
2022-09-23T10:39:22.811Z,4.43
2022-09-23T10:42:17.153Z,4.78
2022-09-23T10:45:15.371Z,4.25
2022-09-23T10:48:00.699Z,4.57
2022-09-23T10:50:49.232Z,4.33
2022-09-23T10:53:25.242Z,4.80
2022-09-23T10:56:07.868Z,4.50
2022-09-23T10:58:50.812Z,4.70
2022-09-23T11:01:39.390Z,3.75
2022-09-23T11:04:24.525Z,4.07
2022-09-23T11:07:07.963Z,4.30
2022-09-23T11:10:35.214Z,4.38
2022-09-23T11:13:35.844Z,4.20
2022-09-23T11:16:41.800Z,4.30
2022-09-23T11:19:36.278Z,4.05
2022-09-23T11:22:38.544Z,4.13
2022-09-23T11:25:28.716Z,3.95
2022-09-23T11:28:49.885Z,4.40
2022-09-23T11:31:59.329Z,4.60
2022-09-23T11:34:34.282Z,4.30
2022-09-23T11:37:09.013Z,4.25
2022-09-23T11:39:51.565Z,4.40
2022-09-23T11:42:26.056Z,5.50
2022-09-23T11:45:21.947Z,4.57
2022-09-23T11:47:58.546Z,4.60
2022-09-23T11:51:13.245Z,4.38
2022-09-23T11:53:59.972Z,3.97
2022-09-23T11:56:36.140Z,4.45
2022-09-23T11:59:13.312Z,4.30
2022-09-23T12:01:47.167Z,3.78
2022-09-23T12:04:29.530Z,4.38
2022-09-23T12:07:01.701Z,4.20
2022-09-23T12:09:57.316Z,5.40
2022-09-23T12:12:51.784Z,4.63
2022-09-23T12:15:34.558Z,4.78
2022-09-23T12:18:36.026Z,4.50
2022-09-23T12:21:33.086Z,4.05
2022-09-23T12:24:05.934Z,4.47
2022-09-23T12:26:33.855Z,3.60
2022-09-23T12:29:03.630Z,4.28
2022-09-23T12:34:20.055Z,5.03
2022-09-23T12:36:47.361Z,4.35
2022-09-23T12:39:20.795Z,5.03
2022-09-23T12:41:51.977Z,4.05
2022-09-23T12:44:34.695Z,4.47
2022-09-23T12:47:25.879Z,4.65
2022-09-23T12:49:53.551Z,4.45
2022-09-23T12:52:20.596Z,3.55
2022-09-23T12:54:50.163Z,4.28
2022-09-23T12:57:35.497Z,4.07
2022-09-23T13:00:11.775Z,4.85
2022-09-23T13:02:38.713Z,4.07
2022-09-23T13:05:27.164Z,5.65
2022-09-23T13:08:06.798Z,4.15
2022-09-23T13:10:50.131Z,3.47
2022-09-23T13:13:36.000Z,4.45
2022-09-23T13:16:14.910Z,3.80
2022-09-23T13:18:55.615Z,3.55
2022-09-23T13:21:47.656Z,3.38
2022-09-23T13:24:23.971Z,3.75
2022-09-23T13:27:08.607Z,4.03
2022-09-23T13:29:50.365Z,4.53
2022-09-23T13:32:20.609Z,4.20
2022-09-23T13:34:58.311Z,3.72
2022-09-23T13:37:31.522Z,3.75
2022-09-23T13:40:19.120Z,4.28
2022-09-23T13:42:55.215Z,5.45
2022-09-23T13:45:24.670Z,3.30
2022-09-23T13:47:54.767Z,4.72
2022-09-23T13:50:23.664Z,3.38
2022-09-23T13:52:56.885Z,4.10
2022-09-23T13:55:39.009Z,3.38
2022-09-23T13:58:24.523Z,3.80
2022-09-23T14:00:52.011Z,4.05
2022-09-23T14:03:36.267Z,3.45
2022-09-23T14:06:14.625Z,3.55
2022-09-23T14:08:45.278Z,3.33
2022-09-23T14:11:18.177Z,3.30
2022-09-23T14:13:47.352Z,3.75
2022-09-23T14:16:16.298Z,3.53
2022-09-23T14:18:49.319Z,3.72
2022-09-23T14:21:37.123Z,3.30
2022-09-23T14:24:10.464Z,3.85
2022-09-23T14:26:39.539Z,3.30
2022-09-23T14:29:14.022Z,3.13
2022-09-23T14:31:42.332Z,3.58
2022-09-23T14:34:50.515Z,3.90
2022-09-23T14:37:57.477Z,3.90
2022-09-23T14:40:33.709Z,3.60
2022-09-23T14:43:15.872Z,4.53
2022-09-23T14:45:47.564Z,3.42
2022-09-23T14:48:23.987Z,3.72
2022-09-23T14:51:16.070Z,3.47
2022-09-23T14:53:48.876Z,3.13
2022-09-23T14:56:22.866Z,3.55
2022-09-23T14:58:57.978Z,4.05
2022-09-23T15:01:30.700Z,3.30
2022-09-23T15:04:16.187Z,4.32
2022-09-23T15:06:50.876Z,3.38
2022-09-23T15:09:23.878Z,3.58
2022-09-23T15:11:59.417Z,3.38
2022-09-23T15:14:38.147Z,3.85
2022-09-23T15:17:17.574Z,3.60
2022-09-23T15:19:45.167Z,4.38
2022-09-23T15:22:13.272Z,4.13
2022-09-23T15:24:45.714Z,3.40
2022-09-23T15:27:31.329Z,3.70
2022-09-23T15:30:22.828Z,3.85
2022-09-23T15:32:49.995Z,3.85
2022-09-23T15:35:19.901Z,3.55
2022-09-23T15:37:49.467Z,4.38
2022-09-23T15:40:23.086Z,3.53
2022-09-23T15:42:54.049Z,4.30
2022-09-23T15:45:48.641Z,3.47
2022-09-23T15:48:18.471Z,3.97
2022-09-23T15:55:45.627Z,4.00
2022-09-23T15:58:12.555Z,3.45
2022-09-23T16:00:39.807Z,4.20
2022-09-23T16:03:06.962Z,4.40
2022-09-23T16:05:37.886Z,4.40
2022-09-23T16:08:09.310Z,5.18
2022-09-23T16:10:37.749Z,4.95
2022-09-23T16:13:09.010Z,5.03
2022-09-23T16:15:36.101Z,4.78
2022-09-23T16:18:03.118Z,5.00
2022-09-23T16:20:30.573Z,4.95
2022-09-23T16:23:00.723Z,4.57
2022-09-23T16:25:30.461Z,4.95
2022-09-23T16:27:58.593Z,5.90
2022-09-23T16:30:27.486Z,4.28
2022-09-23T16:32:55.506Z,5.28
2022-09-23T16:35:24.898Z,10.05
2022-09-23T16:37:53.018Z,6.28
2022-09-23T16:40:23.095Z,5.05
2022-09-23T16:42:52.454Z,5.97
2022-09-23T16:45:23.439Z,5.60
2022-09-23T16:47:52.162Z,4.85
2022-09-23T16:50:22.799Z,4.70
2022-09-23T16:52:54.892Z,4.72
2022-09-23T16:55:27.640Z,4.72
2022-09-23T16:57:56.382Z,8.88
2022-09-23T17:00:43.684Z,7.57
2022-09-23T17:03:31.462Z,8.57
2022-09-23T17:05:58.817Z,12.07
2022-09-23T17:08:25.983Z,17.85
2022-09-23T17:10:58.659Z,17.42
2022-09-23T17:13:29.651Z,15.73
2022-09-23T17:15:57.007Z,13.95
2022-09-23T17:18:24.022Z,11.63
2022-09-23T17:20:59.401Z,9.32
2022-09-23T17:23:27.127Z,9.05
2022-09-23T17:25:54.544Z,7.38
2022-09-23T17:28:22.213Z,7.28
2022-09-23T17:30:55.072Z,10.98
2022-09-23T17:33:22.512Z,7.53
2022-09-23T17:35:49.539Z,7.18
2022-09-23T17:38:16.544Z,7.13
2022-09-23T17:40:50.855Z,7.30
2022-09-23T17:43:25.188Z,6.50
2022-09-23T17:45:54.643Z,5.80
2022-09-23T17:48:26.378Z,5.95
2022-09-23T17:50:58.055Z,5.95
2022-09-23T17:53:26.287Z,6.90
2022-09-23T17:55:57.933Z,7.95
2022-09-23T17:58:30.098Z,8.32
2022-09-23T18:00:57.550Z,7.70
2022-09-23T18:03:25.892Z,7.22
2022-09-23T18:05:52.970Z,7.95
2022-09-23T18:08:20.569Z,7.70
2022-09-23T18:10:47.584Z,8.57
2022-09-23T18:13:14.559Z,7.72
2022-09-23T18:15:41.665Z,10.00
2022-09-23T18:18:08.603Z,10.20
2022-09-23T18:20:35.685Z,11.15
2022-09-23T18:23:02.690Z,9.25
2022-09-23T18:25:39.205Z,9.27
2022-09-23T18:28:06.749Z,8.68
2022-09-23T18:30:33.746Z,9.02
2022-09-23T18:33:01.722Z,8.90
2022-09-23T18:35:28.883Z,9.93
2022-09-23T18:37:56.323Z,10.07
2022-09-23T18:40:23.309Z,8.52
2022-09-23T18:42:50.622Z,8.82
2022-09-23T18:45:17.566Z,9.55
2022-09-23T18:48:02.979Z,9.52
2022-09-23T18:50:43.365Z,9.10
2022-09-23T18:53:10.988Z,9.98
2022-09-23T18:55:37.940Z,9.98
2022-09-23T18:58:07.510Z,10.38
2022-09-23T19:00:35.304Z,10.82
2022-09-23T19:03:02.481Z,10.38
2022-09-23T19:05:29.558Z,10.07
2022-09-23T19:07:56.649Z,12.35
2022-09-23T19:10:23.631Z,11.45
2022-09-23T19:12:50.572Z,16.23
2022-09-23T19:15:17.654Z,11.15
2022-09-23T19:17:44.624Z,9.90
2022-09-23T19:20:12.710Z,9.48
2022-09-23T19:22:40.117Z,11.05
2022-09-23T19:25:08.529Z,10.98
2022-09-23T19:27:35.979Z,10.27
2022-09-23T19:30:04.276Z,11.00
2022-09-23T19:32:33.473Z,10.52
2022-09-23T19:35:01.227Z,11.00
2022-09-23T19:37:28.459Z,10.23
2022-09-23T19:39:55.443Z,9.27
2022-09-23T19:42:23.288Z,8.80
2022-09-23T19:44:50.437Z,9.15
2022-09-23T19:47:17.521Z,8.60
2022-09-23T19:49:44.791Z,8.88
2022-09-23T19:52:11.737Z,8.68
2022-09-23T19:54:38.765Z,9.00
2022-09-23T19:57:05.880Z,9.35
2022-09-23T19:59:32.998Z,8.90
2022-09-23T20:02:00.129Z,8.48
2022-09-23T20:04:27.155Z,9.38
2022-09-23T20:06:54.199Z,8.77
2022-09-23T20:09:21.344Z,8.18
2022-09-23T20:11:48.357Z,8.35
2022-09-23T20:14:15.352Z,7.85
2022-09-23T20:16:42.497Z,8.45
2022-09-23T20:19:09.966Z,15.73
2022-09-23T20:21:36.974Z,10.48
2022-09-23T20:24:05.877Z,14.02
2022-09-23T20:26:52.168Z,10.57
2022-09-23T20:29:19.251Z,10.20
2022-09-23T20:31:46.317Z,9.88
2022-09-23T20:34:13.374Z,9.93
2022-09-23T20:36:41.787Z,10.00
2022-09-23T20:39:10.345Z,9.63
2022-09-23T20:41:39.496Z,10.27
2022-09-23T20:44:12.923Z,10.30
2022-09-23T20:46:47.755Z,9.77
2022-09-23T20:49:16.209Z,9.48
2022-09-23T20:51:44.746Z,10.88
2022-09-23T20:54:12.462Z,9.05
2022-09-23T20:56:39.686Z,9.05
2022-09-23T20:59:06.885Z,8.98
2022-09-23T21:01:35.645Z,8.68
2022-09-23T21:04:08.093Z,9.32
2022-09-23T21:06:36.745Z,8.55
2022-09-23T21:09:07.988Z,8.82
2022-09-23T21:11:34.956Z,8.40
2022-09-23T21:14:02.667Z,9.23
2022-09-23T21:16:30.428Z,8.07
2022-09-23T21:18:58.492Z,8.10
2022-09-23T21:21:26.254Z,8.15
2022-09-23T21:23:53.288Z,9.38
2022-09-23T21:26:24.898Z,8.95
2022-09-23T21:28:57.931Z,8.45
2022-09-23T21:31:32.285Z,8.93
2022-09-23T21:34:00.605Z,8.00
2022-09-23T21:36:33.162Z,7.00
2022-09-23T21:39:04.461Z,10.57
2022-09-23T21:41:32.116Z,7.07
2022-09-23T21:44:00.389Z,7.30
2022-09-23T21:46:28.420Z,8.15
2022-09-23T21:48:57.609Z,7.75
2022-09-23T21:51:27.531Z,6.88
2022-09-23T21:53:56.951Z,7.20
2022-09-23T21:56:26.082Z,7.32
2022-09-23T21:58:54.735Z,6.93
2022-09-23T22:01:27.290Z,8.25
2022-09-23T22:03:56.890Z,7.82
2022-09-23T22:06:28.553Z,7.57
2022-09-23T22:09:01.381Z,8.68
2022-09-23T22:11:51.074Z,8.00
2022-09-23T22:14:23.494Z,8.70
2022-09-23T22:16:50.606Z,8.93
2022-09-23T22:19:17.963Z,8.57
2022-09-23T22:21:45.840Z,9.25
2022-09-23T22:24:13.328Z,9.32
2022-09-23T22:26:42.600Z,9.65
2022-09-23T22:29:31.317Z,10.18
2022-09-23T22:32:18.349Z,10.32
2022-09-23T22:34:50.937Z,8.52
2022-09-23T22:37:21.593Z,8.75
2022-09-23T22:39:48.599Z,9.25
2022-09-23T22:42:16.227Z,10.95
2022-09-23T22:44:43.522Z,9.90
2022-09-23T22:47:10.998Z,9.48
2022-09-23T22:49:38.022Z,8.68
2022-09-23T22:52:11.391Z,10.45
2022-09-23T22:54:40.301Z,11.70
2022-09-23T22:57:08.381Z,11.90
2022-09-23T22:59:36.072Z,11.90
2022-09-23T23:02:03.711Z,11.50
2022-09-23T23:04:31.132Z,11.63
2022-09-23T23:06:59.106Z,11.50
2022-09-23T23:09:26.452Z,11.35
2022-09-23T23:11:53.521Z,12.23
2022-09-23T23:14:20.826Z,12.85
2022-09-23T23:16:47.882Z,12.57
2022-09-23T23:19:17.363Z,13.05
2022-09-23T23:21:45.660Z,12.77
2022-09-23T23:24:18.179Z,12.95
2022-09-23T23:26:45.747Z,11.65
2022-09-23T23:29:14.400Z,12.02
2022-09-23T23:31:45.525Z,11.90
2022-09-23T23:34:15.342Z,12.07
2022-09-23T23:36:43.687Z,11.65
2022-09-23T23:39:11.240Z,12.40
2022-09-23T23:41:41.831Z,12.02
2022-09-23T23:44:09.080Z,11.88
2022-09-23T23:46:37.554Z,12.65
2022-09-23T23:49:05.150Z,11.52
2022-09-23T23:51:32.212Z,11.23
2022-09-23T23:54:00.297Z,11.57
2022-09-23T23:56:30.901Z,11.40
2022-09-23T23:59:00.966Z,12.10
